Lafayette, IN (47903)

4:29 PM EST on January 29, 2015 (GMT -0500)
CUMBERLAND AVE | Change Station
CLOSE
Current Station
Personal Weather Station
Location: West Lafayette, IN
Elevation: 712 ft
Nearby Weather Stations

Elev 712 ft 40.46 °N, 86.90 °W | Updated 3 minutes ago

Overcast
Overcast
34.1 °F
Feels Like 27 °F
N
9.0
Wind Variable Wind from WNW
Gusts 9.0 mph

Today
High -- | Low -- °F
--% Chance of Precip.
Yesterday
High -- | Low -- °F
Precip. -- in
7:59 AM 6:01 PM
Waxing Gibbous, 77% visible
Pressure 30.03 in
Visibility 7.0 miles
Clouds Scattered Clouds 2300 ft
Overcast 3300 ft
Windchill 27 °F
Dew Point 30 °F
Humidity 85%
Rainfall 0.00 in
Snow Depth Not available.
UV 0.0 out of 12
Pollen .40 out of 12
Air Quality Not available.
Flu Activity Not available.
METAR KLAF 292054Z 30014G22KT 7SM SCT023 OVC033 01/M03 A3002 RMK AO2 SLP169 T00111028 53036

More Conditions Fewer Conditions

Pressure 30.03 in
Visibility 7.0 miles
Clouds Scattered Clouds 2300 ft
Overcast 3300 ft
Windchill 27 °F
Dew Point 30 °F
Humidity 85%
Rainfall 0.00 in
Snow Depth Not available.
UV 0.0 out of 12
Pollen .40 out of 12
Air Quality Not available.
Flu Activity Not available.
METAR KLAF 292054Z 30014G22KT 7SM SCT023 OVC033 01/M03 A3002 RMK AO2 SLP169 T00111028 53036

More Conditions Fewer Conditions

10-Day Weather Forecast

Almanac

Astronomy

Jan. 29, 2015 Rise Set
Actual Time
Civil Twilight
Nautical Twilight
Astronomical Twilight
Moon
Length of Visible Light
Length of Day
Tomorrow will be .
, % of the Moon is Illuminated

Today's Extremes

State Highs State Lows

Community

WunderPhotos

Upload Photos

1,791,607 photos uploaded!

WunderBlogs® & News

Nearby

Air Quality

  Air Quality AQ Index Pollutant
Not available.

Snow Depth

Station Depth Elevation

Earthquake Activity

City Distance Mag. Time & Date
Minimum magnitude displayed is 2.5.

Coastal Water Temperatures

Place Temperature

Nearby Weather Stations